Time;durP1;ratioP1;P1;durP2;ratioP2;P2;SDS_P1;SDS_P2;PMS_P1;PMS_P2;Temp;Humidity;BMP_temperature;BMP_pressure;BME280_temperature;BME280_humidity;BME280_pressure;Samples;Min_cycle;Max_cycle;Signal;HPM_P1;HPM_P2
2023/01/26 00:01:37;;;;;;;;;;;;;;;12.07;40.85;99830.38;4495127;31;33729;-84
2023/01/26 00:04:04;;;;;;;;;;;;;;;11.32;42.41;99828.03;4492304;31;32528;-85
2023/01/26 00:06:34;;;;;;;;;;;;;;;11.52;42.06;99824.16;4490503;31;34354;-85
2023/01/26 00:09:01;;;;;;;;;;;;;;;11.79;41.68;99825.50;4484573;31;35384;-83
2023/01/26 00:11:29;;;;;;;;;;;;;;;11.84;41.53;99823.91;4483818;31;34032;-85
2023/01/26 00:13:57;;;;;;;;;;;;;;;11.90;41.52;99817.09;4484119;32;34026;-86
2023/01/26 00:16:25;;;;;;;;;;;;;;;11.97;41.20;99811.97;4484445;31;34262;-85
2023/01/26 00:18:53;;;;;;;;;;;;;;;11.45;42.03;99827.47;4497102;31;35155;-80
2023/01/26 00:21:20;;;;;;;;;;;;;;;11.91;41.27;99816.25;4487186;31;33873;-86
2023/01/26 00:23:48;;;;;;;;;;;;;;;11.99;41.15;99825.91;4485556;31;33953;-86
2023/01/26 00:26:16;;;;;;;;;;;;;;;12.15;40.82;99810.56;4492532;31;34086;-87
2023/01/26 00:28:44;;;;;;;;;;;;;;;11.75;41.51;99810.72;4486713;31;34536;-86
2023/01/26 00:31:15;;;;;;;;;;;;;;;11.53;41.97;99806.84;4489862;31;35189;-86
2023/01/26 00:33:43;;;;;;;;;;;;;;;11.93;41.06;99805.84;4487037;31;33341;-87
2023/01/26 00:36:10;;;;;;;;;;;;;;;11.81;41.39;99811.69;4477743;31;34866;-84
2023/01/26 00:38:39;;;;;;;;;;;;;;;11.93;41.35;99803.25;4494272;31;34235;-87
2023/01/26 00:41:07;;;;;;;;;;;;;;;11.66;41.62;99812.28;4472056;31;35022;-86
2023/01/26 00:43:34;;;;;;;;;;;;;;;11.87;41.36;99798.84;4498318;31;33367;-85
2023/01/26 00:46:02;;;;;;;;;;;;;;;12.16;40.90;99807.16;4489205;31;34075;-85
2023/01/26 00:48:29;;;;;;;;;;;;;;;12.06;40.92;99802.63;4487689;31;33021;-85
2023/01/26 00:50:56;;;;;;;;;;;;;;;11.68;41.56;99805.41;4488863;31;34961;-86
2023/01/26 00:53:24;;;;;;;;;;;;;;;11.91;41.27;99797.19;4488325;31;33269;-86
2023/01/26 00:55:54;;;;;;;;;;;;;;;12.01;41.11;99793.91;4499053;31;33907;-86
2023/01/26 00:58:23;;;;;;;;;;;;;;;11.95;41.04;99788.59;4499603;31;34493;-86
2023/01/26 01:00:52;;;;;;;;;;;;;;;12.07;40.90;99795.72;4498935;31;34335;-87
2023/01/26 01:03:19;;;;;;;;;;;;;;;11.95;41.17;99793.78;4495135;31;34419;-86
2023/01/26 01:05:46;;;;;;;;;;;;;;;12.11;40.88;99793.19;4494434;31;35077;-84
2023/01/26 01:08:13;;;;;;;;;;;;;;;12.01;40.96;99787.78;4491995;31;34175;-86
2023/01/26 01:10:41;;;;;;;;;;;;;;;12.29;40.56;99796.94;4490791;31;34207;-85
2023/01/26 01:13:08;;;;;;;;;;;;;;;12.36;40.20;99791.00;4498675;31;34159;-86
2023/01/26 01:15:37;;;;;;;;;;;;;;;12.25;40.37;99787.34;4484507;31;33886;-85
2023/01/26 01:18:04;;;;;;;;;;;;;;;12.06;40.56;99780.97;4493490;31;33976;-85
2023/01/26 01:20:32;;;;;;;;;;;;;;;12.02;40.74;99780.06;4489016;31;34888;-86
2023/01/26 01:22:59;;;;;;;;;;;;;;;12.30;40.12;99781.34;4488340;31;34303;-86
2023/01/26 01:25:26;;;;;;;;;;;;;;;12.48;39.71;99780.75;4492834;31;34116;-83
2023/01/26 01:27:54;;;;;;;;;;;;;;;12.29;39.98;99784.81;4499699;31;34410;-83
2023/01/26 01:30:21;;;;;;;;;;;;;;;12.16;40.39;99773.34;4499509;31;34300;-86
2023/01/26 01:32:50;;;;;;;;;;;;;;;12.34;40.01;99774.47;4493627;31;33422;-86
2023/01/26 01:35:17;;;;;;;;;;;;;;;12.37;39.97;99777.12;4488615;31;33756;-85
2023/01/26 01:37:44;;;;;;;;;;;;;;;12.21;40.08;99773.44;4474964;32;33794;-86
2023/01/26 01:40:12;;;;;;;;;;;;;;;12.17;40.39;99774.22;4494516;31;35000;-85
2023/01/26 01:42:45;;;;;;;;;;;;;;;12.20;40.18;99773.37;4497998;31;33635;-86
2023/01/26 01:45:21;;;;;;;;;;;;;;;12.16;40.31;99768.16;4498595;31;35181;-82
2023/01/26 01:47:48;;;;;;;;;;;;;;;12.15;40.30;99763.78;4493996;31;35205;-83
2023/01/26 01:50:16;;;;;;;;;;;;;;;12.04;40.43;99764.47;4469034;32;33849;-87
2023/01/26 01:52:44;;;;;;;;;;;;;;;12.31;39.90;99756.22;4491792;31;33552;-83
2023/01/26 01:55:13;;;;;;;;;;;;;;;12.25;40.07;99758.75;4476832;32;35116;-87
2023/01/26 01:57:45;;;;;;;;;;;;;;;12.34;39.94;99761.47;4493019;31;34338;-85
2023/01/26 02:00:14;;;;;;;;;;;;;;;12.20;40.18;99757.78;4470132;32;34790;-85
2023/01/26 02:02:42;;;;;;;;;;;;;;;12.34;40.06;99756.28;4476360;31;33451;-87
2023/01/26 02:05:13;;;;;;;;;;;;;;;11.91;40.64;99751.28;4499120;31;35300;-86
2023/01/26 02:07:40;;;;;;;;;;;;;;;12.05;40.45;99743.72;4499445;31;34524;-86
2023/01/26 02:10:20;;;;;;;;;;;;;;;12.22;40.20;99741.37;4499266;31;34237;-86
2023/01/26 02:12:47;;;;;;;;;;;;;;;12.36;39.99;99734.66;4490460;31;33300;-86
2023/01/26 02:15:15;;;;;;;;;;;;;;;12.05;40.50;99733.31;4475525;31;34023;-84
2023/01/26 02:17:42;;;;;;;;;;;;;;;12.02;40.87;99732.41;4491613;31;34465;-85
2023/01/26 02:20:12;;;;;;;;;;;;;;;12.09;40.81;99731.66;4469539;32;34043;-83
2023/01/26 02:22:59;;;;;;;;;;;;;;;12.05;40.92;99729.84;4492265;31;33252;-86
2023/01/26 02:25:30;;;;;;;;;;;;;;;12.26;40.54;99730.16;4499237;31;33963;-86
2023/01/26 02:27:57;;;;;;;;;;;;;;;12.00;40.98;99724.56;4498887;31;34266;-85
2023/01/26 02:30:24;;;;;;;;;;;;;;;12.12;40.47;99721.28;4496754;31;34557;-86
2023/01/26 02:32:52;;;;;;;;;;;;;;;12.12;40.20;99719.59;4483858;31;34032;-85
2023/01/26 02:35:19;;;;;;;;;;;;;;;12.25;39.91;99714.56;4498156;31;34111;-86
2023/01/26 02:37:46;;;;;;;;;;;;;;;12.40;39.72;99709.56;4483196;32;34087;-87
2023/01/26 02:40:14;;;;;;;;;;;;;;;12.49;39.25;99698.41;4494150;31;35089;-86
2023/01/26 02:42:43;;;;;;;;;;;;;;;12.02;40.36;99696.87;4485111;31;34099;-85
2023/01/26 02:45:11;;;;;;;;;;;;;;;12.14;40.33;99701.41;4493118;31;34178;-86
2023/01/26 02:47:40;;;;;;;;;;;;;;;12.01;40.54;99691.66;4490059;31;35128;-86
2023/01/26 02:50:08;;;;;;;;;;;;;;;11.99;40.66;99690.78;4498206;31;34318;-86
2023/01/26 02:52:36;;;;;;;;;;;;;;;12.00;40.69;99687.31;4491230;31;33030;-86
2023/01/26 02:55:24;;;;;;;;;;;;;;;12.21;40.34;99682.44;4471230;32;34608;-86
2023/01/26 02:57:52;;;;;;;;;;;;;;;12.12;40.31;99678.00;4485368;31;33806;-86
2023/01/26 03:00:31;;;;;;;;;;;;;;;12.02;40.70;99676.09;4481911;31;34074;-86
2023/01/26 03:02:59;;;;;;;;;;;;;;;11.76;41.06;99673.06;4488587;31;34377;-85
2023/01/26 03:05:27;;;;;;;;;;;;;;;11.95;40.80;99665.59;4483446;31;34003;-86
2023/01/26 03:07:54;;;;;;;;;;;;;;;12.02;40.61;99659.63;4499421;31;34026;-86
2023/01/26 03:10:24;;;;;;;;;;;;;;;11.93;40.84;99662.94;4485973;31;34503;-86
2023/01/26 03:12:51;;;;;;;;;;;;;;;12.02;40.70;99660.50;4491586;31;33392;-86
2023/01/26 03:15:41;;;;;;;;;;;;;;;11.80;40.85;99661.00;4490130;31;34065;-86
2023/01/26 03:29:20;;;;;;;;;;;;;;;10.51;42.29;99653.47;4477282;31;34225;-86
2023/01/26 03:31:48;;;;;;;;;;;;;;;10.33;42.70;99660.84;4495051;31;34133;-83
2023/01/26 03:34:16;;;;;;;;;;;;;;;9.71;43.71;99654.25;4484621;32;33126;-87
2023/01/26 03:36:44;;;;;;;;;;;;;;;9.78;44.58;99652.69;4492731;31;32755;-86
2023/01/26 03:41:06;;;;;;;;;;;;;;;10.23;43.30;99650.25;4484446;31;34204;-86
2023/01/26 03:59:07;;;;;;;;;;;;;;;9.80;44.19;99630.28;4473871;32;33939;-85
2023/01/26 04:01:35;;;;;;;;;;;;;;;10.01;43.70;99634.22;4482805;31;33875;-85
2023/01/26 04:09:36;;;;;;;;;;;;;;;10.09;43.50;99624.88;4484455;32;34327;-85
2023/01/26 04:12:04;;;;;;;;;;;;;;;10.59;42.65;99620.78;4484133;32;34413;-86
2023/01/26 04:22:51;;;;;;;;;;;;;;;9.81;44.19;99615.59;4487687;31;34880;-87
2023/01/26 04:25:19;;;;;;;;;;;;;;;9.27;45.09;99610.03;4496073;31;34091;-87
2023/01/26 04:27:47;;;;;;;;;;;;;;;9.50;44.58;99607.13;4484047;32;33834;-86
2023/01/26 04:30:15;;;;;;;;;;;;;;;10.05;43.58;99613.59;4484114;32;34164;-86
2023/01/26 04:32:43;;;;;;;;;;;;;;;10.15;43.07;99609.44;4486812;31;33900;-86
2023/01/26 04:35:10;;;;;;;;;;;;;;;10.62;42.13;99602.69;4496992;31;34123;-84
2023/01/26 04:37:38;;;;;;;;;;;;;;;10.23;42.48;99595.84;4483906;32;34303;-85
2023/01/26 04:40:05;;;;;;;;;;;;;;;9.82;43.92;99599.25;4483942;32;34348;-86
2023/01/26 04:42:33;;;;;;;;;;;;;;;10.11;42.96;99608.50;4484019;31;35340;-86
2023/01/26 04:45:01;;;;;;;;;;;;;;;10.13;42.83;99606.84;4498186;31;34135;-85
2023/01/26 04:47:29;;;;;;;;;;;;;;;10.17;42.88;99603.47;4484301;32;34148;-85
2023/01/26 04:49:57;;;;;;;;;;;;;;;10.25;42.57;99595.91;4472075;32;33994;-86
2023/01/26 04:52:25;;;;;;;;;;;;;;;10.57;41.75;99599.16;4483658;31;34304;-85
2023/01/26 04:54:53;;;;;;;;;;;;;;;9.94;42.57;99597.81;4499163;31;34677;-84
2023/01/26 04:57:22;;;;;;;;;;;;;;;9.66;42.97;99604.09;4483835;32;34571;-86
2023/01/26 04:59:50;;;;;;;;;;;;;;;9.53;43.64;99601.16;4483855;32;34003;-86
2023/01/26 05:02:17;;;;;;;;;;;;;;;9.02;44.50;99598.19;4482967;32;34649;-83
2023/01/26 05:04:44;;;;;;;;;;;;;;;10.03;43.02;99604.87;4498913;31;34376;-81
2023/01/26 05:07:13;;;;;;;;;;;;;;;10.68;41.89;99589.87;4484142;31;34368;-85
2023/01/26 05:09:40;;;;;;;;;;;;;;;10.60;41.63;99594.00;4483741;32;34767;-85
2023/01/26 05:14:55;;;;;;;;;;;;;;;11.06;41.34;99591.38;4484108;31;34885;-84
2023/01/26 05:17:23;;;;;;;;;;;;;;;10.77;41.57;99585.69;4485003;31;33313;-86
2023/01/26 05:19:50;;;;;;;;;;;;;;;10.90;41.50;99583.31;4490467;31;35053;-86
2023/01/26 05:22:18;;;;;;;;;;;;;;;10.42;41.81;99588.47;4493661;31;33871;-83
2023/01/26 05:24:46;;;;;;;;;;;;;;;10.55;41.65;99584.41;4499150;31;35128;-82
2023/01/26 05:27:20;;;;;;;;;;;;;;;10.84;41.13;99585.84;4496603;31;33220;-83
2023/01/26 05:29:49;;;;;;;;;;;;;;;10.27;42.18;99591.63;4492420;31;34319;-85
2023/01/26 05:32:16;;;;;;;;;;;;;;;10.03;42.72;99594.53;4484947;31;34085;-86
2023/01/26 05:34:43;;;;;;;;;;;;;;;10.38;41.95;99581.47;4495446;31;34051;-83
2023/01/26 05:37:11;;;;;;;;;;;;;;;10.49;41.67;99587.72;4489995;31;33894;-85
2023/01/26 05:39:41;;;;;;;;;;;;;;;9.36;43.73;99593.88;4485811;31;32920;-86
2023/01/26 05:42:12;;;;;;;;;;;;;;;9.24;44.44;99598.72;4489450;31;34030;-85
2023/01/26 05:44:40;;;;;;;;;;;;;;;9.75;43.29;99606.88;4470111;32;34201;-86
2023/01/26 05:47:08;;;;;;;;;;;;;;;9.65;43.50;99601.44;4483450;32;34831;-84
2023/01/26 05:49:41;;;;;;;;;;;;;;;8.81;45.20;99607.97;4494974;31;33565;-85
2023/01/26 05:52:09;;;;;;;;;;;;;;;8.42;46.75;99603.47;4490846;31;33609;-81
2023/01/26 05:54:38;;;;;;;;;;;;;;;9.26;44.78;99603.09;4495949;31;34011;-85
2023/01/26 05:57:05;;;;;;;;;;;;;;;8.62;45.51;99606.59;4491948;31;34094;-84
2023/01/26 05:59:34;;;;;;;;;;;;;;;8.55;46.37;99599.50;4491293;31;34174;-82
2023/01/26 06:02:02;;;;;;;;;;;;;;;7.66;47.96;99612.34;4484527;31;34205;-84
2023/01/26 06:04:29;;;;;;;;;;;;;;;7.66;48.32;99607.19;4488152;31;34720;-83
2023/01/26 06:06:57;;;;;;;;;;;;;;;7.50;48.70;99615.25;4485352;31;34334;-85
2023/01/26 06:09:25;;;;;;;;;;;;;;;7.39;49.28;99606.31;4483196;31;33837;-86
2023/01/26 06:11:55;;;;;;;;;;;;;;;7.15;49.42;99606.38;4483414;32;34239;-83
2023/01/26 06:14:23;;;;;;;;;;;;;;;7.25;49.79;99614.47;4482131;32;34954;-83
2023/01/26 06:16:53;;;;;;;;;;;;;;;7.91;47.41;99602.75;4497082;31;33199;-86
2023/01/26 06:19:20;;;;;;;;;;;;;;;7.86;47.50;99594.88;4498526;31;34237;-85
2023/01/26 06:21:49;;;;;;;;;;;;;;;7.41;48.57;99604.66;4498946;31;33941;-80
2023/01/26 06:24:16;;;;;;;;;;;;;;;7.96;47.39;99606.38;4499354;31;33691;-82
2023/01/26 06:26:48;;;;;;;;;;;;;;;7.79;47.86;99604.13;4488170;31;34232;-84
2023/01/26 06:29:15;;;;;;;;;;;;;;;7.25;48.99;99606.72;4496904;31;35025;-83
2023/01/26 06:31:42;;;;;;;;;;;;;;;7.19;49.62;99605.63;4498691;31;35065;-84
2023/01/26 06:34:10;;;;;;;;;;;;;;;7.71;48.30;99600.44;4483910;31;34071;-84
2023/01/26 06:36:38;;;;;;;;;;;;;;;8.31;47.04;99602.25;4482762;32;33518;-84
2023/01/26 06:39:06;;;;;;;;;;;;;;;8.76;46.03;99589.75;4483145;32;34230;-84
2023/01/26 06:41:34;;;;;;;;;;;;;;;8.42;46.61;99592.25;4485761;31;34450;-84
2023/01/26 06:44:01;;;;;;;;;;;;;;;8.33;46.51;99592.81;4498460;31;34368;-84
2023/01/26 06:46:28;;;;;;;;;;;;;;;8.43;46.62;99594.88;4483951;31;33306;-84
2023/01/26 06:48:57;;;;;;;;;;;;;;;8.45;46.05;99593.22;4482947;32;35010;-83
2023/01/26 06:51:36;;;;;;;;;;;;;;;7.69;47.54;99596.97;4483100;31;34530;-83
2023/01/26 06:54:03;;;;;;;;;;;;;;;7.35;48.27;99596.69;4486281;31;34319;-82
2023/01/26 06:56:31;;;;;;;;;;;;;;;7.20;48.99;99597.97;4482588;31;33276;-83
2023/01/26 06:58:58;;;;;;;;;;;;;;;6.81;49.94;99590.63;4482895;31;34673;-85
2023/01/26 07:01:26;;;;;;;;;;;;;;;6.75;50.10;99597.28;4482904;32;34160;-84
2023/01/26 07:03:53;;;;;;;;;;;;;;;6.99;49.44;99594.66;4482560;32;34272;-84
2023/01/26 07:06:20;;;;;;;;;;;;;;;7.57;47.89;99596.56;4482831;31;33406;-85
2023/01/26 07:08:48;;;;;;;;;;;;;;;6.95;49.54;99596.25;4484991;31;32714;-83
2023/01/26 07:11:16;;;;;;;;;;;;;;;6.54;50.99;99597.41;4487456;31;34375;-81
2023/01/26 07:13:43;;;;;;;;;;;;;;;7.12;49.28;99591.66;4478530;31;32808;-83
2023/01/26 07:16:11;;;;;;;;;;;;;;;7.26;48.08;99586.97;4495775;31;34094;-85
2023/01/26 07:18:39;;;;;;;;;;;;;;;6.36;50.45;99589.00;4483332;31;33991;-84
2023/01/26 07:21:10;;;;;;;;;;;;;;;6.93;49.26;99585.03;4498033;31;35186;-81
2023/01/26 07:23:37;;;;;;;;;;;;;;;6.68;49.70;99582.44;4469581;32;34227;-85
2023/01/26 07:26:05;;;;;;;;;;;;;;;6.43;50.77;99583.25;4482257;32;34138;-84
2023/01/26 07:28:33;;;;;;;;;;;;;;;7.01;48.91;99582.72;4467950;32;34318;-83
2023/01/26 07:31:00;;;;;;;;;;;;;;;6.02;50.83;99583.53;4468325;32;34911;-84
2023/01/26 07:33:28;;;;;;;;;;;;;;;6.63;49.49;99583.94;4482065;32;34973;-84
2023/01/26 07:35:56;;;;;;;;;;;;;;;6.12;50.65;99587.28;4481941;32;33491;-83
2023/01/26 07:38:23;;;;;;;;;;;;;;;6.31;49.92;99576.84;4482121;32;34163;-84
2023/01/26 07:40:50;;;;;;;;;;;;;;;7.03;48.55;99576.78;4481908;32;34730;-84
2023/01/26 07:43:18;;;;;;;;;;;;;;;6.98;48.74;99575.75;4481843;32;35025;-83
2023/01/26 07:45:46;;;;;;;;;;;;;;;6.93;48.75;99571.25;4484204;31;33833;-83
2023/01/26 07:48:14;;;;;;;;;;;;;;;7.38;48.06;99568.44;4497435;31;34297;-83
2023/01/26 07:50:41;;;;;;;;;;;;;;;7.95;46.64;99568.47;4497421;31;34476;-84
2023/01/26 07:53:11;;;;;;;;;;;;;;;7.89;46.64;99570.88;4498830;31;34505;-84
2023/01/26 07:55:38;;;;;;;;;;;;;;;7.16;47.58;99577.16;4499919;31;33478;-84
2023/01/26 07:58:06;;;;;;;;;;;;;;;8.03;45.99;99573.03;4500055;31;34249;-81
2023/01/26 08:00:33;;;;;;;;;;;;;;;8.00;46.00;99577.25;4498721;31;35258;-84
2023/01/26 08:03:00;;;;;;;;;;;;;;;7.96;46.29;99572.81;4499488;31;34088;-83
2023/01/26 08:05:28;;;;;;;;;;;;;;;7.11;47.23;99571.88;4500034;31;33228;-84
2023/01/26 08:07:59;;;;;;;;;;;;;;;7.18;47.87;99571.25;4499926;31;35093;-84
2023/01/26 08:10:26;;;;;;;;;;;;;;;7.65;46.54;99574.47;4499723;31;34994;-84
2023/01/26 08:12:55;;;;;;;;;;;;;;;7.32;47.33;99570.00;4485945;31;35073;-85
2023/01/26 08:15:22;;;;;;;;;;;;;;;6.56;49.21;99577.72;4500020;31;33577;-84
2023/01/26 08:17:50;;;;;;;;;;;;;;;7.50;47.48;99576.53;4499686;31;33960;-84
2023/01/26 08:20:20;;;;;;;;;;;;;;;7.97;46.10;99569.41;4500105;31;35120;-85
2023/01/26 08:22:48;;;;;;;;;;;;;;;8.08;45.66;99567.13;4485683;31;34021;-84
2023/01/26 08:25:15;;;;;;;;;;;;;;;8.51;45.23;99566.66;4500333;31;33455;-84
2023/01/26 08:27:42;;;;;;;;;;;;;;;7.13;47.58;99562.50;4499954;31;34276;-84
2023/01/26 08:30:10;;;;;;;;;;;;;;;7.32;47.30;99569.13;4499859;31;35077;-84
2023/01/26 08:32:38;;;;;;;;;;;;;;;7.97;46.21;99567.69;4499611;31;34528;-84
2023/01/26 08:35:05;;;;;;;;;;;;;;;8.03;46.07;99566.97;4499910;31;34420;-84
2023/01/26 08:37:32;;;;;;;;;;;;;;;7.46;46.69;99572.13;4499705;31;34905;-84
2023/01/26 08:40:00;;;;;;;;;;;;;;;7.66;46.12;99575.34;4499767;31;35309;-85
2023/01/26 08:42:27;;;;;;;;;;;;;;;7.40;46.71;99567.66;4499729;31;34081;-84
2023/01/26 08:44:55;;;;;;;;;;;;;;;7.34;47.02;99570.03;4499660;31;34072;-83
2023/01/26 08:47:23;;;;;;;;;;;;;;;7.76;46.08;99567.03;4499429;31;33635;-84
2023/01/26 08:49:50;;;;;;;;;;;;;;;7.91;45.53;99566.63;4499615;31;34794;-84
2023/01/26 08:52:17;;;;;;;;;;;;;;;7.66;46.15;99563.31;4499730;31;33994;-83
2023/01/26 08:54:44;;;;;;;;;;;;;;;7.71;46.59;99564.31;4499627;31;33442;-84
2023/01/26 08:57:12;;;;;;;;;;;;;;;8.10;45.05;99563.75;4499645;31;34664;-83
2023/01/26 08:59:39;;;;;;;;;;;;;;;8.63;44.10;99560.94;4499516;31;34043;-84
2023/01/26 09:02:07;;;;;;;;;;;;;;;8.32;44.61;99566.94;4499556;31;33979;-84
2023/01/26 09:04:35;;;;;;;;;;;;;;;7.38;47.29;99569.31;4499578;31;33619;-84
2023/01/26 09:07:02;;;;;;;;;;;;;;;8.05;45.03;99561.03;4499672;31;34936;-82
2023/01/26 09:09:29;;;;;;;;;;;;;;;7.03;46.90;99563.00;4499602;31;34497;-84
2023/01/26 09:11:56;;;;;;;;;;;;;;;7.06;46.92;99571.72;4499652;31;33977;-83
2023/01/26 09:14:24;;;;;;;;;;;;;;;7.15;46.97;99565.97;4499627;31;33499;-84
2023/01/26 09:16:51;;;;;;;;;;;;;;;6.67;47.22;99566.09;4499263;31;35136;-83
2023/01/26 09:19:18;;;;;;;;;;;;;;;6.14;48.61;99577.94;4499376;31;35328;-83
2023/01/26 09:21:45;;;;;;;;;;;;;;;5.98;49.69;99575.59;4499356;31;34134;-84
2023/01/26 09:24:13;;;;;;;;;;;;;;;6.36;48.59;99569.28;4499670;31;33521;-84
2023/01/26 09:26:40;;;;;;;;;;;;;;;7.78;45.89;99566.25;4499383;31;34989;-85
2023/01/26 09:29:07;;;;;;;;;;;;;;;8.57;43.92;99551.31;4499350;31;34326;-82
2023/01/26 09:31:35;;;;;;;;;;;;;;;7.90;45.06;99562.28;4499170;31;33590;-85
2023/01/26 09:34:02;;;;;;;;;;;;;;;8.18;44.72;99553.63;4499570;31;33185;-83
2023/01/26 09:36:29;;;;;;;;;;;;;;;7.85;44.85;99563.88;4499264;31;34289;-83
2023/01/26 09:38:57;;;;;;;;;;;;;;;7.10;46.76;99559.81;4499345;31;35340;-83
2023/01/26 09:41:33;;;;;;;;;;;;;;;6.48;48.01;99564.59;4499337;31;34856;-84
2023/01/26 09:44:04;;;;;;;;;;;;;;;7.10;47.34;99556.34;4499221;31;33139;-84
2023/01/26 09:46:50;;;;;;;;;;;;;;;7.15;46.99;99555.66;4484834;31;34022;-84
2023/01/26 09:49:19;;;;;;;;;;;;;;;7.20;47.25;99553.25;4499117;31;34053;-82
2023/01/26 09:51:55;;;;;;;;;;;;;;;7.20;47.27;99541.25;4485235;31;34216;-84
2023/01/26 09:54:43;;;;;;;;;;;;;;;7.52;46.56;99551.69;4485368;31;33404;-84
2023/01/26 09:57:14;;;;;;;;;;;;;;;7.89;45.64;99547.66;4471959;31;33560;-84
2023/01/26 09:59:41;;;;;;;;;;;;;;;7.45;46.33;99545.44;4498927;31;34490;-83
2023/01/26 10:02:27;;;;;;;;;;;;;;;6.56;48.41;99537.38;4499313;31;34025;-85
2023/01/26 10:04:55;;;;;;;;;;;;;;;7.63;46.06;99528.78;4499194;31;34308;-84
2023/01/26 10:07:22;;;;;;;;;;;;;;;8.01;45.27;99517.88;4484884;31;34029;-84
2023/01/26 10:09:50;;;;;;;;;;;;;;;7.74;45.77;99509.34;4484624;31;34424;-84
2023/01/26 10:12:18;;;;;;;;;;;;;;;7.65;45.94;99519.38;4484612;31;34181;-85
2023/01/26 10:14:45;;;;;;;;;;;;;;;8.11;45.12;99516.44;4497985;31;33734;-84
2023/01/26 10:17:22;;;;;;;;;;;;;;;8.33;44.61;99509.28;4484549;31;34013;-85
2023/01/26 10:19:50;;;;;;;;;;;;;;;8.88;43.41;99498.69;4498953;31;35243;-84
2023/01/26 10:22:26;;;;;;;;;;;;;;;9.09;43.27;99505.22;4484835;31;33932;-83
2023/01/26 10:24:53;;;;;;;;;;;;;;;8.44;44.07;99502.72;4498752;31;34282;-85
2023/01/26 10:27:21;;;;;;;;;;;;;;;8.93;43.25;99499.69;4484519;31;34598;-84
2023/01/26 10:29:48;;;;;;;;;;;;;;;9.38;41.72;99487.81;4484357;31;34356;-83
2023/01/26 10:32:16;;;;;;;;;;;;;;;8.78;42.85;99483.78;4498721;31;34322;-84
2023/01/26 10:34:44;;;;;;;;;;;;;;;8.77;43.04;99482.91;4484654;31;33405;-84
2023/01/26 10:37:20;;;;;;;;;;;;;;;9.16;42.06;99476.06;4484446;31;35016;-83
2023/01/26 10:39:59;;;;;;;;;;;;;;;8.85;42.83;99477.94;4498738;31;34497;-83
2023/01/26 10:42:28;;;;;;;;;;;;;;;8.96;42.61;99473.91;4498612;31;34238;-84
2023/01/26 10:44:56;;;;;;;;;;;;;;;9.50;41.69;99469.94;4498614;31;33271;-84
2023/01/26 10:47:26;;;;;;;;;;;;;;;9.80;41.63;99472.31;4484764;31;33976;-85
2023/01/26 10:50:12;;;;;;;;;;;;;;;10.40;40.02;99463.16;4484325;31;35346;-84
2023/01/26 10:52:47;;;;;;;;;;;;;;;10.09;40.36;99457.38;4498411;31;34387;-84
2023/01/26 10:55:21;;;;;;;;;;;;;;;9.45;41.81;99466.41;4484230;31;33208;-84
2023/01/26 10:57:48;;;;;;;;;;;;;;;9.26;42.65;99462.53;4498360;31;33927;-84
2023/01/26 11:00:15;;;;;;;;;;;;;;;9.87;40.75;99458.66;4498451;31;35319;-84
2023/01/26 11:02:47;;;;;;;;;;;;;;;9.71;41.17;99457.47;4498155;31;35120;-84
2023/01/26 11:05:18;;;;;;;;;;;;;;;9.83;40.94;99455.97;4498272;31;34439;-84
2023/01/26 11:07:46;;;;;;;;;;;;;;;9.51;40.54;99448.44;4484106;31;33921;-84
2023/01/26 11:10:19;;;;;;;;;;;;;;;9.43;41.07;99449.94;4498296;31;34268;-84
2023/01/26 11:12:47;;;;;;;;;;;;;;;9.30;42.08;99451.41;4498109;31;34267;-84
2023/01/26 11:15:14;;;;;;;;;;;;;;;7.93;44.74;99446.22;4498512;31;33076;-84
2023/01/26 11:17:47;;;;;;;;;;;;;;;8.17;44.04;99443.41;4497968;31;34059;-84
2023/01/26 11:20:25;;;;;;;;;;;;;;;8.04;44.78;99437.94;4483954;31;34541;-84
2023/01/26 11:23:11;;;;;;;;;;;;;;;7.99;44.85;99433.47;4483991;31;35002;-84
2023/01/26 11:25:57;;;;;;;;;;;;;;;9.13;42.61;99432.94;4484101;31;33353;-82
2023/01/26 11:28:43;;;;;;;;;;;;;;;8.49;44.03;99428.81;4500638;31;32970;-85
2023/01/26 11:31:31;;;;;;;;;;;;;;;8.51;43.89;99429.69;4500282;31;34431;-84
2023/01/26 11:34:14;;;;;;;;;;;;;;;8.20;44.37;99431.47;4500241;31;34924;-84
2023/01/26 11:36:47;;;;;;;;;;;;;;;8.73;43.44;99424.22;4500322;31;33450;-84
2023/01/26 11:39:15;;;;;;;;;;;;;;;9.46;41.49;99418.97;4485980;31;34626;-85
2023/01/26 11:41:55;;;;;;;;;;;;;;;7.77;45.05;99425.16;4500479;31;33890;-84
2023/01/26 11:44:41;;;;;;;;;;;;;;;8.15;44.55;99420.16;4500375;31;34249;-84
2023/01/26 11:47:10;;;;;;;;;;;;;;;7.53;46.58;99424.44;4499984;31;33676;-84
2023/01/26 11:49:42;;;;;;;;;;;;;;;7.07;47.47;99428.22;4500206;31;33956;-85
2023/01/26 11:52:12;;;;;;;;;;;;;;;7.42;46.68;99413.78;4485839;31;35243;-83
2023/01/26 11:54:43;;;;;;;;;;;;;;;7.70;45.94;99400.00;4500229;31;34984;-84
2023/01/26 11:57:17;;;;;;;;;;;;;;;8.21;44.91;99401.34;4485890;31;33600;-85
2023/01/26 11:59:48;;;;;;;;;;;;;;;7.82;45.75;99396.00;4499977;31;35121;-85
2023/01/26 12:02:22;;;;;;;;;;;;;;;8.53;44.44;99390.16;4485712;31;34355;-84
2023/01/26 12:04:56;;;;;;;;;;;;;;;7.28;46.48;99389.34;4500026;31;34959;-84
2023/01/26 12:07:28;;;;;;;;;;;;;;;7.85;45.30;99380.59;4486036;31;33442;-85
2023/01/26 12:09:55;;;;;;;;;;;;;;;8.39;44.32;99375.16;4485481;31;34332;-85
2023/01/26 12:12:33;;;;;;;;;;;;;;;7.43;46.93;99368.28;4485784;31;34400;-85
2023/01/26 12:15:18;;;;;;;;;;;;;;;8.75;43.75;99373.44;4499963;31;34716;-84
2023/01/26 12:17:57;;;;;;;;;;;;;;;8.93;43.35;99359.19;4499759;31;32931;-85
2023/01/26 12:20:48;;;;;;;;;;;;;;;9.64;42.33;99361.53;4499632;31;34269;-84
2023/01/26 12:23:37;;;;;;;;;;;;;;;8.31;43.75;99356.84;4491448;31;35177;-85
2023/01/26 12:26:06;;;;;;;;;;;;;;;7.98;45.24;99367.19;4489207;31;35194;-85
2023/01/26 12:28:34;;;;;;;;;;;;;;;8.64;43.26;99362.00;4500013;31;33478;-85
2023/01/26 12:31:21;;;;;;;;;;;;;;;8.80;42.55;99352.87;4485403;31;33978;-85
2023/01/26 12:33:50;;;;;;;;;;;;;;;8.80;42.92;99357.19;4485621;31;33904;-84
2023/01/26 12:36:17;;;;;;;;;;;;;;;8.92;42.92;99358.31;4499830;31;34512;-85
2023/01/26 12:39:17;;;;;;;;;;;;;;;9.65;41.95;99353.78;4498795;31;33664;-84
2023/01/26 12:42:03;;;;;;;;;;;;;;;9.27;41.65;99335.78;4464600;31;34607;-84
2023/01/26 12:44:41;;;;;;;;;;;;;;;10.03;40.54;99342.41;4499745;31;34282;-84
2023/01/26 12:47:13;;;;;;;;;;;;;;;9.37;41.72;99330.81;4499378;31;35402;-84
2023/01/26 12:49:52;;;;;;;;;;;;;;;9.38;41.76;99335.12;4485403;31;33600;-84
2023/01/26 12:52:30;;;;;;;;;;;;;;;9.31;41.94;99330.69;4485250;31;34298;-84
2023/01/26 12:55:18;;;;;;;;;;;;;;;9.75;40.89;99339.31;4485182;31;35304;-85
2023/01/26 12:57:52;;;;;;;;;;;;;;;10.33;39.79;99326.53;4499435;31;34322;-85
2023/01/26 13:00:20;;;;;;;;;;;;;;;10.20;40.23;99330.63;4499706;31;33797;-84
2023/01/26 13:02:49;;;;;;;;;;;;;;;10.34;39.70;99325.69;4485139;31;34020;-85
2023/01/26 13:05:27;;;;;;;;;;;;;;;9.93;40.33;99328.44;4485319;31;35059;-85
2023/01/26 13:07:54;;;;;;;;;;;;;;;10.54;39.67;99334.66;4485049;31;35134;-85
2023/01/26 13:10:26;;;;;;;;;;;;;;;9.40;41.54;99323.13;4499129;31;33532;-84
2023/01/26 13:12:53;;;;;;;;;;;;;;;10.08;40.83;99328.69;4499501;31;35175;-85
2023/01/26 13:15:21;;;;;;;;;;;;;;;10.44;40.47;99325.84;4499778;31;34372;-85
2023/01/26 13:17:50;;;;;;;;;;;;;;;10.09;40.96;99324.38;4499351;31;34919;-84
2023/01/26 13:20:22;;;;;;;;;;;;;;;8.52;43.25;99331.56;4485208;31;33299;-84
2023/01/26 13:22:50;;;;;;;;;;;;;;;9.81;41.13;99323.00;4498996;31;35056;-85
2023/01/26 13:25:30;;;;;;;;;;;;;;;9.83;41.13;99322.19;4485203;31;34589;-85
2023/01/26 13:28:02;;;;;;;;;;;;;;;9.50;42.09;99318.13;4485522;31;34066;-84
2023/01/26 13:30:29;;;;;;;;;;;;;;;9.32;42.72;99317.78;4499436;31;32889;-84
2023/01/26 13:33:01;;;;;;;;;;;;;;;9.41;42.54;99319.69;4499478;31;34281;-84
2023/01/26 13:35:28;;;;;;;;;;;;;;;10.06;41.04;99325.19;4485055;31;34981;-85
2023/01/26 13:37:57;;;;;;;;;;;;;;;8.74;42.97;99325.16;4485004;31;34540;-84
2023/01/26 13:40:29;;;;;;;;;;;;;;;10.09;40.91;99324.38;4485080;31;33359;-84
2023/01/26 13:43:03;;;;;;;;;;;;;;;9.83;41.19;99317.03;4499116;31;33397;-84
2023/01/26 13:45:44;;;;;;;;;;;;;;;9.97;41.19;99319.88;4499499;31;35303;-84
2023/01/26 13:48:14;;;;;;;;;;;;;;;8.17;44.55;99330.66;4499087;31;35027;-85
2023/01/26 13:50:41;;;;;;;;;;;;;;;9.31;42.13;99318.59;4485135;31;33085;-85
2023/01/26 13:53:27;;;;;;;;;;;;;;;9.35;42.02;99322.13;4484798;31;34103;-84